»·PEaware :: N690B KSNA-KOKB

N690B :: KSNA-KOKB

FLIGHT INFORMATION

Flight Status: Arrived
Operator: Privately registered:
United States
More flights under this callsign
Pilot: Kaloso N. (23070)
Aircraft: BEECH AIRCRAFT BARON
(BE58)
More flights by this aircraft type
Origin: KSNA John Wayne-Orange Co
United States
Destination: KOKB Oceanside Mun
United States
More flights between these airports :: More routes between these airports
Route: +V25 PACIF V208 OCN
File this flight plan on PilotEdge
Remarks: NONE
Altitude:
(Current/Filed)
5,000ft
Speed:
(Current/Filed)
145kts
Departed: 10-Nov-19 01:21 PM
Arrived: 10-Nov-19 01:40 PM
Distance/Time
Traveled:
38nm/0:19
Distance/Time
To Go:
Arrived

Flight Plot

Page will automatically refresh every two minutes.

Flight plan parsing failed; only flown route is shown


Map Options




Map Legend


Flown Route
Filed Route
Departure Airport
Arrival Airport
Navaid (VOR, NDB)
Fix

Horizontal Profiles

Position Reports

Time Latitude Longitude Heading Altitude Ground
Speed
10-Nov-19 12:49 33.674112 -117.865569 117 60ft 0kts
10-Nov-19 12:50 33.674112 -117.865569 117 60ft 0kts
10-Nov-19 12:51 33.674112 -117.865569 117 60ft 0kts
10-Nov-19 12:52 33.674112 -117.865569 117 60ft 0kts
10-Nov-19 12:53 33.674112 -117.865569 117 60ft 0kts
10-Nov-19 12:54 33.674112 -117.865569 117 60ft 0kts
10-Nov-19 12:55 33.674112 -117.865569 117 60ft 0kts
10-Nov-19 12:56 33.674112 -117.865569 117 60ft 0kts
10-Nov-19 12:57 33.674112 -117.865569 117 60ft 0kts
10-Nov-19 12:58 33.674112 -117.865569 117 60ft 0kts
10-Nov-19 12:59 33.674112 -117.865569 117 60ft 0kts
10-Nov-19 13:00 33.674112 -117.865569 117 60ft 0kts
10-Nov-19 13:01 33.674112 -117.865569 117 60ft 0kts
10-Nov-19 13:02 33.674112 -117.865569 117 60ft 0kts
10-Nov-19 13:03 33.674112 -117.865569 117 60ft 0kts
10-Nov-19 13:04 33.674112 -117.865569 117 60ft 0kts
10-Nov-19 13:05 33.674112 -117.865569 117 60ft 0kts
10-Nov-19 13:06 33.674112 -117.865569 117 60ft 0kts
10-Nov-19 13:07 33.674112 -117.865569 117 60ft 0kts
10-Nov-19 13:08 33.674112 -117.865569 117 60ft 0kts
10-Nov-19 13:09 33.674112 -117.865569 117 60ft 0kts
10-Nov-19 13:10 33.674112 -117.865569 117 60ft 0kts
10-Nov-19 13:11 33.674112 -117.865569 117 60ft 0kts
10-Nov-19 13:12 33.674112 -117.865569 117 60ft 0kts
10-Nov-19 13:13 33.674112 -117.865569 117 60ft 0kts
10-Nov-19 13:14 33.674419 -117.865554 351 60ft 8kts
10-Nov-19 13:15 33.676589 -117.864903 27 60ft 18kts
10-Nov-19 13:16 33.679493 -117.863080 29 60ft 23kts
10-Nov-19 13:17 33.680654 -117.863080 300 60ft 1kts
10-Nov-19 13:18 33.680731 -117.863264 294 60ft 4kts
10-Nov-19 13:19 33.680909 -117.865521 208 60ft 30kts
10-Nov-19 13:20 33.660709 -117.876890 189 767ft 131kts
10-Nov-19 13:21 33.627475 -117.881444 185 2436ft 124kts
10-Nov-19 13:22 33.588479 -117.886484 185 4160ft 119kts
10-Nov-19 13:23 33.548065 -117.891704 185 5810ft 116kts
10-Nov-19 13:24 33.502721 -117.856700 142 6923ft 160kts
10-Nov-19 13:25 33.437177 -117.794973 142 7030ft 180kts
10-Nov-19 13:26 33.368153 -117.734801 142 6922ft 180kts
10-Nov-19 13:27 33.299090 -117.671678 141 6938ft 184kts
10-Nov-19 13:28 33.257760 -117.586413 105 6923ft 185kts
10-Nov-19 13:29 33.243987 -117.490305 95 6306ft 184kts
10-Nov-19 13:30 33.236554 -117.403768 95 4890ft 192kts
10-Nov-19 13:31 33.219618 -117.322763 106 3839ft 163kts
10-Nov-19 13:32 33.209500 -117.263454 55 3918ft 128kts
10-Nov-19 13:33 33.246865 -117.211225 49 3882ft 140kts
10-Nov-19 13:34 33.280260 -117.151547 115 3897ft 140kts
10-Nov-19 13:35 33.250334 -117.192075 261 3077ft 153kts
10-Nov-19 13:36 33.239265 -117.246517 242 2623ft 98kts
10-Nov-19 13:37 33.228617 -117.283874 255 2014ft 97kts
10-Nov-19 13:38 33.222296 -117.322588 259 1102ft 90kts
10-Nov-19 13:39 33.217666 -117.352861 184 31ft 9kts

Navigation Log

Ident Type
Flight plan parsing failed, navigation log unavailable